sensor_id;sensor_type;location;lat;lon;timestamp;P1;durP1;ratioP1;P2;durP2;ratioP2
22240;SDS011;11289;52.524;13.694;2023-10-08T00:00:46;10.98;;;2.38;;
22240;SDS011;11289;52.524;13.694;2023-10-08T00:03:21;7.88;;;2.13;;
22240;SDS011;11289;52.524;13.694;2023-10-08T00:05:47;5.75;;;1.48;;
22240;SDS011;11289;52.524;13.694;2023-10-08T00:08:16;12.65;;;2.05;;
22240;SDS011;11289;52.524;13.694;2023-10-08T00:10:43;7.10;;;1.70;;
22240;SDS011;11289;52.524;13.694;2023-10-08T00:13:11;4.28;;;1.58;;
22240;SDS011;11289;52.524;13.694;2023-10-08T00:15:38;9.10;;;2.30;;
22240;SDS011;11289;52.524;13.694;2023-10-08T00:18:16;11.95;;;3.80;;
22240;SDS011;11289;52.524;13.694;2023-10-08T00:20:43;10.88;;;6.88;;
22240;SDS011;11289;52.524;13.694;2023-10-08T00:23:22;10.95;;;5.75;;
22240;SDS011;11289;52.524;13.694;2023-10-08T00:25:52;8.32;;;5.07;;
22240;SDS011;11289;52.524;13.694;2023-10-08T00:28:20;10.82;;;5.38;;
22240;SDS011;11289;52.524;13.694;2023-10-08T00:30:46;7.78;;;4.07;;
22240;SDS011;11289;52.524;13.694;2023-10-08T00:33:13;10.00;;;3.33;;
22240;SDS011;11289;52.524;13.694;2023-10-08T00:35:41;6.50;;;3.33;;
22240;SDS011;11289;52.524;13.694;2023-10-08T00:38:08;11.68;;;2.65;;
22240;SDS011;11289;52.524;13.694;2023-10-08T00:40:46;7.47;;;3.10;;
22240;SDS011;11289;52.524;13.694;2023-10-08T00:43:34;7.53;;;1.98;;
22240;SDS011;11289;52.524;13.694;2023-10-08T00:46:01;9.93;;;2.25;;
22240;SDS011;11289;52.524;13.694;2023-10-08T00:48:42;8.73;;;3.10;;
22240;SDS011;11289;52.524;13.694;2023-10-08T00:51:10;12.63;;;3.03;;
22240;SDS011;11289;52.524;13.694;2023-10-08T00:53:56;10.63;;;2.42;;
22240;SDS011;11289;52.524;13.694;2023-10-08T00:56:31;7.88;;;2.65;;
22240;SDS011;11289;52.524;13.694;2023-10-08T00:59:17;8.25;;;2.85;;
22240;SDS011;11289;52.524;13.694;2023-10-08T01:01:47;6.50;;;2.00;;
22240;SDS011;11289;52.524;13.694;2023-10-08T01:04:24;2.97;;;1.65;;
22240;SDS011;11289;52.524;13.694;2023-10-08T01:06:54;8.23;;;2.15;;
22240;SDS011;11289;52.524;13.694;2023-10-08T01:09:27;4.75;;;2.08;;
22240;SDS011;11289;52.524;13.694;2023-10-08T01:12:13;5.97;;;2.20;;
22240;SDS011;11289;52.524;13.694;2023-10-08T01:14:42;8.95;;;2.05;;
22240;SDS011;11289;52.524;13.694;2023-10-08T01:17:09;5.72;;;1.80;;
22240;SDS011;11289;52.524;13.694;2023-10-08T01:19:39;6.70;;;1.80;;
22240;SDS011;11289;52.524;13.694;2023-10-08T01:22:07;9.23;;;2.03;;
22240;SDS011;11289;52.524;13.694;2023-10-08T01:24:42;7.82;;;2.08;;
22240;SDS011;11289;52.524;13.694;2023-10-08T01:27:09;9.20;;;2.17;;
22240;SDS011;11289;52.524;13.694;2023-10-08T01:29:38;5.75;;;1.75;;
22240;SDS011;11289;52.524;13.694;2023-10-08T01:32:05;5.57;;;2.25;;
22240;SDS011;11289;52.524;13.694;2023-10-08T01:34:37;8.93;;;2.85;;
22240;SDS011;11289;52.524;13.694;2023-10-08T01:37:04;6.50;;;3.03;;
22240;SDS011;11289;52.524;13.694;2023-10-08T01:39:37;7.55;;;3.58;;
22240;SDS011;11289;52.524;13.694;2023-10-08T01:42:08;8.75;;;3.22;;
22240;SDS011;11289;52.524;13.694;2023-10-08T01:44:46;7.07;;;2.25;;
22240;SDS011;11289;52.524;13.694;2023-10-08T01:47:14;6.90;;;1.52;;
22240;SDS011;11289;52.524;13.694;2023-10-08T01:49:42;7.43;;;2.72;;
22240;SDS011;11289;52.524;13.694;2023-10-08T01:52:12;7.57;;;2.50;;
22240;SDS011;11289;52.524;13.694;2023-10-08T01:54:49;6.90;;;3.47;;
22240;SDS011;11289;52.524;13.694;2023-10-08T01:57:15;6.88;;;2.78;;
22240;SDS011;11289;52.524;13.694;2023-10-08T01:59:42;7.90;;;1.73;;
22240;SDS011;11289;52.524;13.694;2023-10-08T02:02:09;7.22;;;2.33;;
22240;SDS011;11289;52.524;13.694;2023-10-08T02:04:36;8.13;;;2.67;;
22240;SDS011;11289;52.524;13.694;2023-10-08T02:07:02;6.00;;;2.85;;
22240;SDS011;11289;52.524;13.694;2023-10-08T02:09:41;12.18;;;2.83;;
22240;SDS011;11289;52.524;13.694;2023-10-08T02:12:07;6.63;;;2.42;;
22240;SDS011;11289;52.524;13.694;2023-10-08T02:14:34;8.18;;;2.00;;
22240;SDS011;11289;52.524;13.694;2023-10-08T02:17:01;6.75;;;1.42;;
22240;SDS011;11289;52.524;13.694;2023-10-08T02:19:32;6.68;;;1.85;;
22240;SDS011;11289;52.524;13.694;2023-10-08T02:22:00;5.40;;;1.85;;
22240;SDS011;11289;52.524;13.694;2023-10-08T02:24:26;2.35;;;1.30;;
22240;SDS011;11289;52.524;13.694;2023-10-08T02:26:52;7.35;;;1.60;;
22240;SDS011;11289;52.524;13.694;2023-10-08T02:29:21;5.75;;;1.63;;
22240;SDS011;11289;52.524;13.694;2023-10-08T02:31:50;5.97;;;2.30;;
22240;SDS011;11289;52.524;13.694;2023-10-08T02:34:16;7.70;;;1.88;;
22240;SDS011;11289;52.524;13.694;2023-10-08T02:36:42;3.83;;;1.30;;
22240;SDS011;11289;52.524;13.694;2023-10-08T02:39:08;6.53;;;2.08;;
22240;SDS011;11289;52.524;13.694;2023-10-08T02:41:47;11.80;;;2.25;;
22240;SDS011;11289;52.524;13.694;2023-10-08T02:44:15;8.05;;;2.08;;
22240;SDS011;11289;52.524;13.694;2023-10-08T02:46:46;8.10;;;1.98;;
22240;SDS011;11289;52.524;13.694;2023-10-08T02:49:13;6.38;;;1.95;;
22240;SDS011;11289;52.524;13.694;2023-10-08T02:51:42;6.43;;;1.60;;
22240;SDS011;11289;52.524;13.694;2023-10-08T02:54:10;2.33;;;1.27;;
22240;SDS011;11289;52.524;13.694;2023-10-08T02:56:44;4.43;;;1.58;;
22240;SDS011;11289;52.524;13.694;2023-10-08T02:59:11;5.50;;;1.80;;
22240;SDS011;11289;52.524;13.694;2023-10-08T03:01:39;6.38;;;1.60;;
22240;SDS011;11289;52.524;13.694;2023-10-08T03:04:09;11.55;;;2.05;;
22240;SDS011;11289;52.524;13.694;2023-10-08T03:06:44;5.45;;;1.70;;
22240;SDS011;11289;52.524;13.694;2023-10-08T03:09:17;9.48;;;2.15;;
22240;SDS011;11289;52.524;13.694;2023-10-08T03:11:47;8.95;;;2.47;;
22240;SDS011;11289;52.524;13.694;2023-10-08T03:14:15;5.65;;;2.67;;
22240;SDS011;11289;52.524;13.694;2023-10-08T03:16:50;7.63;;;2.10;;
22240;SDS011;11289;52.524;13.694;2023-10-08T03:19:18;7.30;;;2.47;;
22240;SDS011;11289;52.524;13.694;2023-10-08T03:21:49;6.05;;;1.63;;
22240;SDS011;11289;52.524;13.694;2023-10-08T03:24:22;7.65;;;1.90;;
22240;SDS011;11289;52.524;13.694;2023-10-08T03:26:56;8.10;;;1.40;;
22240;SDS011;11289;52.524;13.694;2023-10-08T03:29:34;6.22;;;2.05;;
22240;SDS011;11289;52.524;13.694;2023-10-08T03:32:07;8.18;;;1.75;;
22240;SDS011;11289;52.524;13.694;2023-10-08T03:34:39;4.60;;;1.77;;
22240;SDS011;11289;52.524;13.694;2023-10-08T03:37:12;4.05;;;1.80;;
22240;SDS011;11289;52.524;13.694;2023-10-08T03:39:48;10.43;;;2.17;;
22240;SDS011;11289;52.524;13.694;2023-10-08T03:42:38;6.32;;;2.47;;
22240;SDS011;11289;52.524;13.694;2023-10-08T03:45:07;5.43;;;1.90;;
22240;SDS011;11289;52.524;13.694;2023-10-08T03:47:37;9.60;;;2.08;;
22240;SDS011;11289;52.524;13.694;2023-10-08T03:50:07;8.38;;;1.90;;
22240;SDS011;11289;52.524;13.694;2023-10-08T03:52:41;4.32;;;1.40;;
22240;SDS011;11289;52.524;13.694;2023-10-08T03:55:10;7.78;;;1.73;;
22240;SDS011;11289;52.524;13.694;2023-10-08T03:57:47;8.05;;;2.10;;
22240;SDS011;11289;52.524;13.694;2023-10-08T04:00:22;10.32;;;2.33;;
22240;SDS011;11289;52.524;13.694;2023-10-08T04:02:57;4.97;;;1.33;;
22240;SDS011;11289;52.524;13.694;2023-10-08T04:05:34;7.93;;;2.83;;
22240;SDS011;11289;52.524;13.694;2023-10-08T04:08:25;3.17;;;1.55;;
22240;SDS011;11289;52.524;13.694;2023-10-08T04:13:56;5.85;;;1.75;;
22240;SDS011;11289;52.524;13.694;2023-10-08T04:16:25;7.50;;;1.45;;
22240;SDS011;11289;52.524;13.694;2023-10-08T04:18:53;6.68;;;2.03;;
22240;SDS011;11289;52.524;13.694;2023-10-08T04:21:24;6.18;;;1.83;;
22240;SDS011;11289;52.524;13.694;2023-10-08T04:23:53;8.80;;;2.15;;
22240;SDS011;11289;52.524;13.694;2023-10-08T04:26:23;5.68;;;1.98;;
22240;SDS011;11289;52.524;13.694;2023-10-08T04:28:50;3.92;;;1.73;;
22240;SDS011;11289;52.524;13.694;2023-10-08T04:33:54;6.35;;;2.05;;
22240;SDS011;11289;52.524;13.694;2023-10-08T04:36:25;12.43;;;2.63;;
22240;SDS011;11289;52.524;13.694;2023-10-08T04:38:52;11.40;;;1.33;;
22240;SDS011;11289;52.524;13.694;2023-10-08T04:41:23;4.93;;;1.83;;
22240;SDS011;11289;52.524;13.694;2023-10-08T04:43:53;5.15;;;1.85;;
22240;SDS011;11289;52.524;13.694;2023-10-08T04:46:21;9.43;;;2.30;;
22240;SDS011;11289;52.524;13.694;2023-10-08T04:49:12;5.80;;;2.22;;
22240;SDS011;11289;52.524;13.694;2023-10-08T04:51:45;4.95;;;1.75;;
22240;SDS011;11289;52.524;13.694;2023-10-08T04:54:11;4.45;;;1.85;;
22240;SDS011;11289;52.524;13.694;2023-10-08T04:56:43;6.03;;;2.25;;
22240;SDS011;11289;52.524;13.694;2023-10-08T04:59:10;5.18;;;1.50;;
22240;SDS011;11289;52.524;13.694;2023-10-08T05:01:39;4.10;;;1.83;;
22240;SDS011;11289;52.524;13.694;2023-10-08T05:04:28;7.82;;;1.90;;
22240;SDS011;11289;52.524;13.694;2023-10-08T05:07:11;5.15;;;1.73;;
22240;SDS011;11289;52.524;13.694;2023-10-08T05:09:47;5.65;;;1.70;;
22240;SDS011;11289;52.524;13.694;2023-10-08T05:12:13;5.50;;;1.60;;
22240;SDS011;11289;52.524;13.694;2023-10-08T05:15:00;6.40;;;2.00;;
22240;SDS011;11289;52.524;13.694;2023-10-08T05:17:38;4.68;;;1.52;;
22240;SDS011;11289;52.524;13.694;2023-10-08T05:20:23;5.05;;;1.77;;
22240;SDS011;11289;52.524;13.694;2023-10-08T05:23:10;3.22;;;1.40;;
22240;SDS011;11289;52.524;13.694;2023-10-08T05:25:48;3.40;;;1.80;;
22240;SDS011;11289;52.524;13.694;2023-10-08T05:28:35;6.30;;;1.88;;
22240;SDS011;11289;52.524;13.694;2023-10-08T05:31:13;2.65;;;1.20;;
22240;SDS011;11289;52.524;13.694;2023-10-08T05:33:40;4.45;;;1.83;;
22240;SDS011;11289;52.524;13.694;2023-10-08T05:36:25;6.72;;;2.45;;
22240;SDS011;11289;52.524;13.694;2023-10-08T05:39:14;5.15;;;1.80;;
22240;SDS011;11289;52.524;13.694;2023-10-08T05:41:50;3.40;;;1.90;;
22240;SDS011;11289;52.524;13.694;2023-10-08T05:44:42;5.30;;;1.77;;
22240;SDS011;11289;52.524;13.694;2023-10-08T05:47:32;8.25;;;1.90;;
22240;SDS011;11289;52.524;13.694;2023-10-08T05:49:59;6.65;;;2.72;;
22240;SDS011;11289;52.524;13.694;2023-10-08T05:52:43;6.55;;;1.92;;
22240;SDS011;11289;52.524;13.694;2023-10-08T05:55:18;4.53;;;2.25;;
22240;SDS011;11289;52.524;13.694;2023-10-08T05:57:55;4.50;;;2.30;;
22240;SDS011;11289;52.524;13.694;2023-10-08T06:00:42;6.60;;;2.70;;
22240;SDS011;11289;52.524;13.694;2023-10-08T06:03:31;5.82;;;3.50;;
22240;SDS011;11289;52.524;13.694;2023-10-08T06:06:05;7.80;;;3.10;;
22240;SDS011;11289;52.524;13.694;2023-10-08T06:08:41;12.60;;;3.25;;
22240;SDS011;11289;52.524;13.694;2023-10-08T06:11:25;6.10;;;3.42;;
22240;SDS011;11289;52.524;13.694;2023-10-08T06:14:07;5.68;;;3.03;;
22240;SDS011;11289;52.524;13.694;2023-10-08T06:16:40;5.75;;;2.13;;
22240;SDS011;11289;52.524;13.694;2023-10-08T06:19:08;5.97;;;2.00;;
22240;SDS011;11289;52.524;13.694;2023-10-08T06:21:38;5.35;;;1.80;;
22240;SDS011;11289;52.524;13.694;2023-10-08T06:24:05;8.70;;;2.30;;
22240;SDS011;11289;52.524;13.694;2023-10-08T06:26:36;6.25;;;2.25;;
22240;SDS011;11289;52.524;13.694;2023-10-08T06:29:11;6.65;;;2.17;;
22240;SDS011;11289;52.524;13.694;2023-10-08T06:31:53;6.05;;;2.20;;
22240;SDS011;11289;52.524;13.694;2023-10-08T06:34:21;5.40;;;2.00;;
22240;SDS011;11289;52.524;13.694;2023-10-08T06:36:49;5.53;;;1.75;;
22240;SDS011;11289;52.524;13.694;2023-10-08T06:39:23;9.23;;;2.92;;
22240;SDS011;11289;52.524;13.694;2023-10-08T06:41:59;7.18;;;1.70;;
22240;SDS011;11289;52.524;13.694;2023-10-08T06:44:26;7.28;;;1.60;;
22240;SDS011;11289;52.524;13.694;2023-10-08T06:46:53;9.60;;;2.15;;
22240;SDS011;11289;52.524;13.694;2023-10-08T06:49:21;6.47;;;1.70;;
22240;SDS011;11289;52.524;13.694;2023-10-08T06:51:50;10.95;;;1.80;;
22240;SDS011;11289;52.524;13.694;2023-10-08T06:54:17;4.40;;;1.70;;
22240;SDS011;11289;52.524;13.694;2023-10-08T06:56:45;4.72;;;1.65;;
22240;SDS011;11289;52.524;13.694;2023-10-08T06:59:17;4.30;;;1.77;;
22240;SDS011;11289;52.524;13.694;2023-10-08T07:01:44;4.78;;;1.23;;
22240;SDS011;11289;52.524;13.694;2023-10-08T07:04:11;4.32;;;1.70;;
22240;SDS011;11289;52.524;13.694;2023-10-08T07:06:39;4.15;;;1.40;;
22240;SDS011;11289;52.524;13.694;2023-10-08T07:09:07;6.13;;;1.40;;
22240;SDS011;11289;52.524;13.694;2023-10-08T07:11:49;3.00;;;1.20;;
22240;SDS011;11289;52.524;13.694;2023-10-08T07:16:48;5.47;;;1.13;;
22240;SDS011;11289;52.524;13.694;2023-10-08T07:19:17;6.07;;;1.17;;
22240;SDS011;11289;52.524;13.694;2023-10-08T07:21:45;7.13;;;1.10;;
22240;SDS011;11289;52.524;13.694;2023-10-08T07:24:12;4.00;;;1.15;;
22240;SDS011;11289;52.524;13.694;2023-10-08T07:26:47;3.95;;;1.02;;
22240;SDS011;11289;52.524;13.694;2023-10-08T07:29:15;1.98;;;1.05;;
22240;SDS011;11289;52.524;13.694;2023-10-08T07:31:43;3.38;;;1.15;;
22240;SDS011;11289;52.524;13.694;2023-10-08T07:41:02;2.50;;;0.93;;
22240;SDS011;11289;52.524;13.694;2023-10-08T07:43:31;2.80;;;1.13;;
22240;SDS011;11289;52.524;13.694;2023-10-08T07:45:58;3.42;;;1.00;;
22240;SDS011;11289;52.524;13.694;2023-10-08T07:48:25;4.10;;;1.00;;
22240;SDS011;11289;52.524;13.694;2023-10-08T07:50:56;4.50;;;1.10;;
22240;SDS011;11289;52.524;13.694;2023-10-08T07:53:23;2.08;;;1.10;;
22240;SDS011;11289;52.524;13.694;2023-10-08T07:55:50;2.60;;;1.20;;
22240;SDS011;11289;52.524;13.694;2023-10-08T07:58:17;2.25;;;1.10;;
22240;SDS011;11289;52.524;13.694;2023-10-08T08:00:44;3.33;;;0.90;;
22240;SDS011;11289;52.524;13.694;2023-10-08T08:03:22;3.03;;;0.98;;
22240;SDS011;11289;52.524;13.694;2023-10-08T08:05:50;1.92;;;0.90;;
22240;SDS011;11289;52.524;13.694;2023-10-08T08:08:19;2.88;;;1.00;;
22240;SDS011;11289;52.524;13.694;2023-10-08T08:10:47;2.80;;;0.80;;
22240;SDS011;11289;52.524;13.694;2023-10-08T08:13:13;2.20;;;1.10;;
22240;SDS011;11289;52.524;13.694;2023-10-08T08:15:46;3.90;;;0.90;;
22240;SDS011;11289;52.524;13.694;2023-10-08T08:18:16;2.42;;;1.20;;
22240;SDS011;11289;52.524;13.694;2023-10-08T08:20:48;3.05;;;1.02;;
22240;SDS011;11289;52.524;13.694;2023-10-08T08:23:14;4.47;;;0.95;;
22240;SDS011;11289;52.524;13.694;2023-10-08T08:25:42;3.38;;;0.85;;
22240;SDS011;11289;52.524;13.694;2023-10-08T08:28:12;3.33;;;1.13;;
22240;SDS011;11289;52.524;13.694;2023-10-08T08:30:47;1.58;;;0.80;;
22240;SDS011;11289;52.524;13.694;2023-10-08T08:33:13;6.75;;;1.10;;
22240;SDS011;11289;52.524;13.694;2023-10-08T08:35:47;2.95;;;0.88;;
22240;SDS011;11289;52.524;13.694;2023-10-08T08:38:23;4.55;;;1.20;;
22240;SDS011;11289;52.524;13.694;2023-10-08T08:40:49;3.97;;;1.00;;
22240;SDS011;11289;52.524;13.694;2023-10-08T08:43:16;1.70;;;0.70;;
22240;SDS011;11289;52.524;13.694;2023-10-08T08:45:42;3.47;;;0.80;;
22240;SDS011;11289;52.524;13.694;2023-10-08T08:48:09;2.70;;;0.98;;
22240;SDS011;11289;52.524;13.694;2023-10-08T08:50:37;2.05;;;1.00;;
22240;SDS011;11289;52.524;13.694;2023-10-08T08:53:04;2.30;;;0.80;;
22240;SDS011;11289;52.524;13.694;2023-10-08T08:55:31;1.27;;;0.90;;
22240;SDS011;11289;52.524;13.694;2023-10-08T08:57:58;1.63;;;0.70;;
22240;SDS011;11289;52.524;13.694;2023-10-08T09:00:26;2.33;;;0.90;;
22240;SDS011;11289;52.524;13.694;2023-10-08T09:02:55;1.13;;;0.63;;
22240;SDS011;11289;52.524;13.694;2023-10-08T09:05:21;1.50;;;0.60;;
22240;SDS011;11289;52.524;13.694;2023-10-08T09:08:01;2.40;;;0.70;;
22240;SDS011;11289;52.524;13.694;2023-10-08T09:10:31;2.58;;;0.80;;
22240;SDS011;11289;52.524;13.694;2023-10-08T09:13:03;3.92;;;0.88;;
22240;SDS011;11289;52.524;13.694;2023-10-08T09:15:30;1.10;;;1.00;;
22240;SDS011;11289;52.524;13.694;2023-10-08T09:18:00;2.95;;;1.05;;
22240;SDS011;11289;52.524;13.694;2023-10-08T09:20:27;2.30;;;0.80;;
22240;SDS011;11289;52.524;13.694;2023-10-08T09:25:50;1.80;;;0.77;;
22240;SDS011;11289;52.524;13.694;2023-10-08T09:28:17;2.25;;;0.70;;
22240;SDS011;11289;52.524;13.694;2023-10-08T09:30:44;3.03;;;0.60;;
22240;SDS011;11289;52.524;13.694;2023-10-08T09:33:14;2.15;;;0.55;;
22240;SDS011;11289;52.524;13.694;2023-10-08T09:35:43;1.25;;;0.70;;
22240;SDS011;11289;52.524;13.694;2023-10-08T09:38:11;1.23;;;0.70;;
22240;SDS011;11289;52.524;13.694;2023-10-08T09:40:38;0.95;;;0.60;;
22240;SDS011;11289;52.524;13.694;2023-10-08T09:43:08;1.85;;;0.70;;
22240;SDS011;11289;52.524;13.694;2023-10-08T09:45:36;1.67;;;0.70;;
22240;SDS011;11289;52.524;13.694;2023-10-08T09:48:05;2.35;;;0.77;;
22240;SDS011;11289;52.524;13.694;2023-10-08T09:50:40;1.67;;;0.68;;
22240;SDS011;11289;52.524;13.694;2023-10-08T09:53:08;1.77;;;0.50;;
22240;SDS011;11289;52.524;13.694;2023-10-08T09:55:36;3.22;;;0.85;;
22240;SDS011;11289;52.524;13.694;2023-10-08T09:58:07;0.47;;;0.40;;
22240;SDS011;11289;52.524;13.694;2023-10-08T10:00:39;3.10;;;0.73;;
22240;SDS011;11289;52.524;13.694;2023-10-08T10:03:07;1.25;;;0.50;;
22240;SDS011;11289;52.524;13.694;2023-10-08T10:05:34;0.93;;;0.47;;
22240;SDS011;11289;52.524;13.694;2023-10-08T10:08:04;0.63;;;0.40;;
22240;SDS011;11289;52.524;13.694;2023-10-08T10:10:36;2.05;;;0.43;;
22240;SDS011;11289;52.524;13.694;2023-10-08T10:13:09;1.58;;;0.50;;
22240;SDS011;11289;52.524;13.694;2023-10-08T10:15:36;1.48;;;0.57;;
22240;SDS011;11289;52.524;13.694;2023-10-08T10:18:12;1.42;;;0.60;;
22240;SDS011;11289;52.524;13.694;2023-10-08T10:20:40;3.20;;;0.82;;
22240;SDS011;11289;52.524;13.694;2023-10-08T10:26:02;3.22;;;0.60;;
22240;SDS011;11289;52.524;13.694;2023-10-08T10:28:29;0.77;;;0.57;;
22240;SDS011;11289;52.524;13.694;2023-10-08T10:30:55;3.88;;;1.20;;
22240;SDS011;11289;52.524;13.694;2023-10-08T10:33:29;1.27;;;0.80;;
22240;SDS011;11289;52.524;13.694;2023-10-08T10:35:56;1.30;;;0.63;;
22240;SDS011;11289;52.524;13.694;2023-10-08T10:38:22;3.63;;;0.80;;
22240;SDS011;11289;52.524;13.694;2023-10-08T10:40:52;1.88;;;0.60;;
22240;SDS011;11289;52.524;13.694;2023-10-08T10:43:24;0.77;;;0.47;;
22240;SDS011;11289;52.524;13.694;2023-10-08T10:46:01;2.03;;;0.57;;
22240;SDS011;11289;52.524;13.694;2023-10-08T10:48:45;1.35;;;0.50;;
22240;SDS011;11289;52.524;13.694;2023-10-08T10:51:23;4.03;;;0.70;;
22240;SDS011;11289;52.524;13.694;2023-10-08T10:53:49;0.88;;;0.60;;
22240;SDS011;11289;52.524;13.694;2023-10-08T10:56:44;2.03;;;0.57;;
22240;SDS011;11289;52.524;13.694;2023-10-08T10:59:13;0.80;;;0.40;;
22240;SDS011;11289;52.524;13.694;2023-10-08T11:01:47;0.82;;;0.50;;
22240;SDS011;11289;52.524;13.694;2023-10-08T11:04:32;0.93;;;0.63;;
22240;SDS011;11289;52.524;13.694;2023-10-08T11:07:11;1.13;;;0.60;;
22240;SDS011;11289;52.524;13.694;2023-10-08T11:09:37;1.02;;;0.65;;
22240;SDS011;11289;52.524;13.694;2023-10-08T11:12:06;6.15;;;2.05;;
22240;SDS011;11289;52.524;13.694;2023-10-08T11:14:42;1.08;;;0.60;;
22240;SDS011;11289;52.524;13.694;2023-10-08T11:17:09;1.35;;;0.55;;
22240;SDS011;11289;52.524;13.694;2023-10-08T11:19:43;0.70;;;0.45;;
22240;SDS011;11289;52.524;13.694;2023-10-08T11:22:12;3.05;;;0.68;;
22240;SDS011;11289;52.524;13.694;2023-10-08T11:24:42;3.20;;;1.15;;
22240;SDS011;11289;52.524;13.694;2023-10-08T11:27:13;0.57;;;0.50;;
22240;SDS011;11289;52.524;13.694;2023-10-08T11:29:45;0.90;;;0.50;;
22240;SDS011;11289;52.524;13.694;2023-10-08T11:32:16;1.92;;;0.50;;
22240;SDS011;11289;52.524;13.694;2023-10-08T11:34:46;3.97;;;0.55;;
22240;SDS011;11289;52.524;13.694;2023-10-08T11:37:37;2.42;;;0.60;;
22240;SDS011;11289;52.524;13.694;2023-10-08T11:40:02;1.45;;;0.80;;
22240;SDS011;11289;52.524;13.694;2023-10-08T11:45:24;2.50;;;0.60;;
22240;SDS011;11289;52.524;13.694;2023-10-08T11:48:06;1.45;;;0.60;;
22240;SDS011;11289;52.524;13.694;2023-10-08T11:50:38;1.77;;;0.70;;
22240;SDS011;11289;52.524;13.694;2023-10-08T11:53:06;1.98;;;0.63;;
22240;SDS011;11289;52.524;13.694;2023-10-08T11:55:33;2.38;;;0.80;;
22240;SDS011;11289;52.524;13.694;2023-10-08T11:58:07;0.77;;;0.60;;
22240;SDS011;11289;52.524;13.694;2023-10-08T12:00:39;0.85;;;0.52;;
22240;SDS011;11289;52.524;13.694;2023-10-08T12:03:17;3.83;;;0.50;;
22240;SDS011;11289;52.524;13.694;2023-10-08T12:05:44;2.10;;;0.57;;
22240;SDS011;11289;52.524;13.694;2023-10-08T12:08:14;0.95;;;0.63;;
22240;SDS011;11289;52.524;13.694;2023-10-08T12:10:44;2.78;;;0.63;;
22240;SDS011;11289;52.524;13.694;2023-10-08T12:13:14;1.23;;;0.70;;
22240;SDS011;11289;52.524;13.694;2023-10-08T12:15:44;0.68;;;0.50;;
22240;SDS011;11289;52.524;13.694;2023-10-08T12:18:10;0.80;;;0.60;;
22240;SDS011;11289;52.524;13.694;2023-10-08T12:20:55;1.10;;;0.47;;
22240;SDS011;11289;52.524;13.694;2023-10-08T12:23:21;0.55;;;0.35;;
22240;SDS011;11289;52.524;13.694;2023-10-08T12:25:55;2.38;;;0.60;;
22240;SDS011;11289;52.524;13.694;2023-10-08T12:28:22;2.20;;;0.50;;
22240;SDS011;11289;52.524;13.694;2023-10-08T12:30:49;1.27;;;0.70;;
22240;SDS011;11289;52.524;13.694;2023-10-08T12:33:18;1.27;;;0.52;;
22240;SDS011;11289;52.524;13.694;2023-10-08T12:35:47;1.02;;;0.50;;
22240;SDS011;11289;52.524;13.694;2023-10-08T12:38:14;1.63;;;0.55;;
22240;SDS011;11289;52.524;13.694;2023-10-08T12:40:40;2.47;;;0.60;;
22240;SDS011;11289;52.524;13.694;2023-10-08T12:43:19;2.08;;;0.70;;
22240;SDS011;11289;52.524;13.694;2023-10-08T12:45:46;1.25;;;0.60;;
22240;SDS011;11289;52.524;13.694;2023-10-08T12:48:20;1.35;;;0.60;;
22240;SDS011;11289;52.524;13.694;2023-10-08T12:50:48;1.40;;;0.65;;
22240;SDS011;11289;52.524;13.694;2023-10-08T12:53:24;1.67;;;0.45;;
22240;SDS011;11289;52.524;13.694;2023-10-08T12:55:59;2.95;;;0.60;;
22240;SDS011;11289;52.524;13.694;2023-10-08T12:58:32;0.90;;;0.70;;
22240;SDS011;11289;52.524;13.694;2023-10-08T13:01:05;2.00;;;0.60;;
22240;SDS011;11289;52.524;13.694;2023-10-08T13:03:32;1.33;;;0.70;;
22240;SDS011;11289;52.524;13.694;2023-10-08T13:05:59;2.38;;;0.90;;
22240;SDS011;11289;52.524;13.694;2023-10-08T13:08:31;1.05;;;0.50;;
22240;SDS011;11289;52.524;13.694;2023-10-08T13:10:59;2.20;;;0.60;;
22240;SDS011;11289;52.524;13.694;2023-10-08T13:13:28;1.02;;;0.52;;
22240;SDS011;11289;52.524;13.694;2023-10-08T13:15:54;1.40;;;0.40;;
22240;SDS011;11289;52.524;13.694;2023-10-08T13:18:22;1.17;;;0.70;;
22240;SDS011;11289;52.524;13.694;2023-10-08T13:20:51;2.53;;;0.60;;
22240;SDS011;11289;52.524;13.694;2023-10-08T13:23:18;1.67;;;0.50;;
22240;SDS011;11289;52.524;13.694;2023-10-08T13:25:55;1.85;;;0.25;;
22240;SDS011;11289;52.524;13.694;2023-10-08T13:28:21;1.15;;;0.50;;
22240;SDS011;11289;52.524;13.694;2023-10-08T13:30:51;2.05;;;0.80;;
22240;SDS011;11289;52.524;13.694;2023-10-08T13:33:20;2.47;;;0.50;;
22240;SDS011;11289;52.524;13.694;2023-10-08T13:35:49;0.80;;;0.60;;
22240;SDS011;11289;52.524;13.694;2023-10-08T13:38:16;2.10;;;0.77;;
22240;SDS011;11289;52.524;13.694;2023-10-08T13:40:46;0.80;;;0.50;;
22240;SDS011;11289;52.524;13.694;2023-10-08T13:43:28;1.97;;;0.50;;
22240;SDS011;11289;52.524;13.694;2023-10-08T13:46:00;0.40;;;0.40;;
22240;SDS011;11289;52.524;13.694;2023-10-08T13:48:35;2.65;;;0.60;;
22240;SDS011;11289;52.524;13.694;2023-10-08T13:51:02;2.70;;;0.65;;
22240;SDS011;11289;52.524;13.694;2023-10-08T13:53:30;1.58;;;0.57;;
22240;SDS011;11289;52.524;13.694;2023-10-08T13:55:59;0.93;;;0.60;;
22240;SDS011;11289;52.524;13.694;2023-10-08T13:58:26;1.00;;;0.50;;
22240;SDS011;11289;52.524;13.694;2023-10-08T14:00:56;2.47;;;0.70;;
22240;SDS011;11289;52.524;13.694;2023-10-08T14:03:22;0.73;;;0.60;;
22240;SDS011;11289;52.524;13.694;2023-10-08T14:05:50;0.70;;;0.60;;
22240;SDS011;11289;52.524;13.694;2023-10-08T14:08:19;1.90;;;0.85;;
22240;SDS011;11289;52.524;13.694;2023-10-08T14:10:45;0.95;;;0.68;;
22240;SDS011;11289;52.524;13.694;2023-10-08T14:13:14;1.83;;;0.70;;
22240;SDS011;11289;52.524;13.694;2023-10-08T14:15:45;1.33;;;0.60;;
22240;SDS011;11289;52.524;13.694;2023-10-08T14:18:14;1.70;;;0.70;;
22240;SDS011;11289;52.524;13.694;2023-10-08T14:20:43;3.83;;;0.80;;
22240;SDS011;11289;52.524;13.694;2023-10-08T14:23:13;1.30;;;0.73;;
22240;SDS011;11289;52.524;13.694;2023-10-08T14:25:42;1.98;;;0.80;;
22240;SDS011;11289;52.524;13.694;2023-10-08T14:28:11;0.88;;;0.60;;
22240;SDS011;11289;52.524;13.694;2023-10-08T14:30:50;1.85;;;0.80;;
22240;SDS011;11289;52.524;13.694;2023-10-08T14:33:21;1.10;;;0.70;;
22240;SDS011;11289;52.524;13.694;2023-10-08T14:35:52;2.45;;;0.85;;
22240;SDS011;11289;52.524;13.694;2023-10-08T14:38:36;1.00;;;0.60;;
22240;SDS011;11289;52.524;13.694;2023-10-08T14:41:21;2.22;;;1.05;;
22240;SDS011;11289;52.524;13.694;2023-10-08T14:44:05;2.05;;;0.90;;
22240;SDS011;11289;52.524;13.694;2023-10-08T14:46:32;1.67;;;0.88;;
22240;SDS011;11289;52.524;13.694;2023-10-08T14:49:00;1.55;;;0.95;;
22240;SDS011;11289;52.524;13.694;2023-10-08T14:51:27;2.83;;;1.08;;
22240;SDS011;11289;52.524;13.694;2023-10-08T14:53:55;1.90;;;1.02;;
22240;SDS011;11289;52.524;13.694;2023-10-08T14:56:21;1.83;;;1.02;;
22240;SDS011;11289;52.524;13.694;2023-10-08T14:58:49;2.63;;;1.50;;
22240;SDS011;11289;52.524;13.694;2023-10-08T15:01:15;2.33;;;1.55;;
22240;SDS011;11289;52.524;13.694;2023-10-08T15:03:41;4.80;;;1.40;;
22240;SDS011;11289;52.524;13.694;2023-10-08T15:06:07;2.15;;;1.15;;
22240;SDS011;11289;52.524;13.694;2023-10-08T15:08:33;2.15;;;1.10;;
22240;SDS011;11289;52.524;13.694;2023-10-08T15:11:00;1.77;;;0.73;;
22240;SDS011;11289;52.524;13.694;2023-10-08T15:13:29;1.00;;;0.60;;
22240;SDS011;11289;52.524;13.694;2023-10-08T15:15:56;1.80;;;0.93;;
22240;SDS011;11289;52.524;13.694;2023-10-08T15:18:25;1.83;;;0.70;;
22240;SDS011;11289;52.524;13.694;2023-10-08T15:20:57;1.50;;;0.80;;